Laramie, WY (82072)

10:25 AM MST on February 13, 2016 (GMT -0700)
North Laramie | | Change Station
CLOSE
Current Station
Personal Weather Station
Location: Laramie, WY
Elevation: 7221 ft
Nearby Weather Stations

Elev 7221 ft 41.33 °N, 105.57 °W | Updated 10 minutes ago

Clear
Clear
50.9 °F
Feels Like 50.9 °F
N
7.3
Wind Variable Wind from SW

Today
High -- | Low -- °F
--% Chance of Precip.
Yesterday
High -- | Low -- °F
Precip. -- in
Pressure 29.92 in
Visibility 10.0 miles
Clouds Clear
Dew Point 13 °F
Humidity 22%
Rainfall 0.00 in
Snow Depth Not available.
7:00 AM 5:33 PM
Waxing Crescent, 32% visible
METAR KLAR 131653Z AUTO 23010KT 10SM CLR 09/M10 A3009 RMK AO2 SLP130 T00891100
Pressure 29.92 in
Visibility 10.0 miles
Clouds Clear
Dew Point 13 °F
Humidity 22%
Rainfall 0.00 in
Snow Depth Not available.
7:00 AM 5:33 PM
Waxing Crescent, 32% visible
METAR KLAR 131653Z AUTO 23010KT 10SM CLR 09/M10 A3009 RMK AO2 SLP130 T00891100

10-Day Weather Forecast

Almanac

Astronomy

Feb. 13, 2016 Rise Set
Actual Time
Civil Twilight
Nautical Twilight
Astronomical Twilight
Moon
Length of Visible Light
Length of Day
Tomorrow will be .
, % of the Moon is Illuminated

Today's Extremes

State Highs State Lows

Community

WunderPhotos

Upload Photos

1,892,620 photos uploaded!

WunderBlog® & News

Nearby

Air Quality

  Air Quality AQ Index Pollutant
Not available.

Snow Depth

Station Depth Elevation

Earthquake Activity

City Distance Mag. Time & Date
Minimum magnitude displayed is 2.5.

Coastal Water Temperatures

Place Temperature

Stations

Nearby Weather Stations

Station Location Temp. Windchill Dew Point Humidity Wind Precip. Elev Updated Type
                   

Watches & Warnings

There are currently no watches in effect.